createdAt,value
2023-05-04T00:00:56.245Z,101160.64
2023-05-04T00:03:01.485Z,101163.52
2023-05-04T00:05:06.684Z,101163.36
2023-05-04T00:07:11.749Z,101160.28
2023-05-04T00:09:16.805Z,101161.92
2023-05-04T00:11:21.861Z,101162.02
2023-05-04T00:13:26.969Z,101163.27
2023-05-04T00:15:32.081Z,101161.5
2023-05-04T00:17:37.144Z,101158.42
2023-05-04T00:19:42.415Z,101152.62
2023-05-04T00:21:47.632Z,101153.05
2023-05-04T00:23:52.671Z,101152.62
2023-05-04T00:25:57.890Z,101154.31
2023-05-04T00:28:02.940Z,101153.32
2023-05-04T00:30:08.206Z,101147.33
2023-05-04T00:32:13.241Z,101150.17
2023-05-04T00:34:18.271Z,101148.13
2023-05-04T00:36:23.334Z,101143.72
2023-05-04T00:38:28.342Z,101144.78
2023-05-04T00:40:33.475Z,101141.55
2023-05-04T00:42:38.546Z,101138.88
2023-05-04T00:44:43.570Z,101138.88
2023-05-04T00:46:48.778Z,101144.28
2023-05-04T00:48:54.122Z,101144.13
2023-05-04T00:50:59.292Z,101141.3
2023-05-04T00:53:04.369Z,101146.47
2023-05-04T00:55:09.406Z,101145.13
2023-05-04T00:57:14.524Z,101151.75
2023-05-04T00:59:19.677Z,101148.91
2023-05-04T01:01:24.968Z,101143.58
2023-05-04T01:03:30.333Z,101145.13
2023-05-04T01:05:35.498Z,101145.62
2023-05-04T01:07:40.715Z,101149.75
2023-05-04T01:09:45.804Z,101155.19
2023-05-04T01:11:50.909Z,101151.92
2023-05-04T01:13:55.940Z,101153.81
2023-05-04T01:16:00.968Z,101157.81
2023-05-04T01:18:06.135Z,101156.92
2023-05-04T01:20:11.275Z,101157.2
2023-05-04T01:22:16.298Z,101164.52
2023-05-04T01:24:21.363Z,101163.55
2023-05-04T01:26:26.418Z,101160.13
2023-05-04T01:28:31.542Z,101163.5
2023-05-04T01:30:36.739Z,101157.73
2023-05-04T01:32:42.023Z,101161.38
2023-05-04T01:34:47.234Z,101159.57
2023-05-04T01:36:52.270Z,101164.55
2023-05-04T01:38:57.493Z,101157.98
2023-05-04T01:41:02.678Z,101160.55
2023-05-04T01:43:07.766Z,101158.61
2023-05-04T01:45:12.884Z,101160.88
2023-05-04T01:47:17.922Z,101154.76
2023-05-04T01:49:22.998Z,101157.09
2023-05-04T01:51:28.185Z,101156.69
2023-05-04T01:53:33.211Z,101151.66
2023-05-04T01:55:38.308Z,101152.76
2023-05-04T01:57:43.394Z,101155
2023-05-04T01:59:48.443Z,101152.34
2023-05-04T02:01:53.598Z,101155.23
2023-05-04T02:03:59.038Z,101155.25
2023-05-04T02:06:04.437Z,101157.36
2023-05-04T02:08:09.514Z,101156.13
2023-05-04T02:10:14.548Z,101158.73
2023-05-04T02:12:19.639Z,101157.09
2023-05-04T02:14:24.743Z,101156.7
2023-05-04T02:16:30.127Z,101153.86
2023-05-04T02:18:35.265Z,101154.45
2023-05-04T02:20:40.381Z,101148.38
2023-05-04T02:22:45.426Z,101148.9
2023-05-04T02:24:50.459Z,101147.94
2023-05-04T02:26:55.515Z,101148.58
2023-05-04T02:29:00.598Z,101141.52
2023-05-04T02:31:05.644Z,101143.51
2023-05-04T02:33:11.146Z,101142.52
2023-05-04T02:35:16.188Z,101143.06
2023-05-04T02:37:21.314Z,101140.94
2023-05-04T02:39:26.345Z,101138.3
2023-05-04T02:41:31.375Z,101140.47
2023-05-04T02:43:36.457Z,101140.23
2023-05-04T02:45:41.671Z,101142.33
2023-05-04T02:47:46.928Z,101137.91
2023-05-04T02:49:52.030Z,101140.57
2023-05-04T02:51:57.142Z,101140.91
2023-05-04T02:54:02.378Z,101143.69
2023-05-04T02:57:59.171Z,101142.42
2023-05-04T03:00:04.772Z,101142.67
2023-05-04T03:02:10.569Z,101141.03
2023-05-04T03:04:15.831Z,101143.4
2023-05-04T03:06:20.975Z,101136.35
2023-05-04T03:08:26.112Z,101143.4
2023-05-04T03:10:31.230Z,101137.91
2023-05-04T03:12:36.323Z,101143.52
2023-05-04T03:14:41.505Z,101143.2
2023-05-04T03:16:46.672Z,101141.31
2023-05-04T03:18:57.127Z,101144.55
2023-05-04T03:21:02.261Z,101143.49
2023-05-04T03:23:07.315Z,101144.2
2023-05-04T03:25:12.387Z,101139.47
2023-05-04T03:27:17.534Z,101142.41
2023-05-04T03:29:22.601Z,101144.84
2023-05-04T03:31:27.735Z,101147.05
2023-05-04T03:33:32.972Z,101146.98
2023-05-04T03:35:38.066Z,101150.89
2023-05-04T03:37:43.216Z,101145.48
2023-05-04T03:39:48.325Z,101147.3
2023-05-04T03:41:53.318Z,101148.27
2023-05-04T03:43:58.383Z,101150.84
2023-05-04T03:46:03.607Z,101150.06
2023-05-04T03:48:08.894Z,101154.17
2023-05-04T03:50:14.108Z,101149.94
2023-05-04T03:52:19.194Z,101150.67
2023-05-04T03:54:24.284Z,101153.52
2023-05-04T03:56:29.452Z,101155.58
2023-05-04T03:58:34.504Z,101152.06
2023-05-04T04:00:39.576Z,101147.64
2023-05-04T04:02:44.856Z,101149.78
2023-05-04T04:04:50.016Z,101155.56
2023-05-04T04:06:55.019Z,101158.77
2023-05-04T04:09:00.044Z,101155.23
2023-05-04T04:11:05.111Z,101155.76
2023-05-04T04:13:10.294Z,101156.05
2023-05-04T04:15:15.503Z,101157.16
2023-05-04T04:17:20.757Z,101154.98
2023-05-04T04:19:25.981Z,101157.34
2023-05-04T04:21:31.071Z,101161.88
2023-05-04T04:23:36.125Z,101158.75
2023-05-04T04:25:42.548Z,101161.84
2023-05-04T04:27:49.118Z,101154.25
2023-05-04T04:29:54.187Z,101154
2023-05-04T04:31:59.379Z,101156.13
2023-05-04T04:34:04.519Z,101153.09
2023-05-04T04:36:09.542Z,101152
2023-05-04T04:38:14.573Z,101154.34
2023-05-04T04:40:19.637Z,101160.39
2023-05-04T04:42:24.776Z,101162.47
2023-05-04T04:44:29.802Z,101162.52
2023-05-04T04:46:34.994Z,101161.89
2023-05-04T04:48:40.194Z,101164.97
2023-05-04T04:50:45.273Z,101166
2023-05-04T04:52:50.296Z,101163.92
2023-05-04T04:54:55.342Z,101165.59
2023-05-04T04:57:00.505Z,101165.63
2023-05-04T04:59:05.525Z,101160.59
2023-05-04T05:01:10.713Z,101159.75
2023-05-04T05:03:16.121Z,101162.73
2023-05-04T05:05:21.341Z,101161.11
2023-05-04T05:07:26.426Z,101159.36
2023-05-04T05:09:31.461Z,101161.44
2023-05-04T05:11:36.549Z,101159.77
2023-05-04T05:13:41.607Z,101157.44
2023-05-04T05:15:46.706Z,101150.34
2023-05-04T05:17:51.978Z,101148.21
2023-05-04T05:19:57.072Z,101150.84
2023-05-04T05:22:02.113Z,101152.4
2023-05-04T05:24:07.149Z,101154.81
2023-05-04T05:26:12.223Z,101155.23
2023-05-04T05:28:17.251Z,101152.05
2023-05-04T05:30:22.329Z,101153.14
2023-05-04T05:32:27.571Z,101152
2023-05-04T05:34:32.693Z,101151.11
2023-05-04T05:36:37.934Z,101152.88
2023-05-04T05:38:43.082Z,101155.8
2023-05-04T05:40:48.114Z,101153.14
2023-05-04T05:42:53.188Z,101155.98
2023-05-04T05:44:58.232Z,101151.91
2023-05-04T05:47:03.248Z,101154.53
2023-05-04T05:49:08.271Z,101156.23
2023-05-04T05:51:13.396Z,101156.66
2023-05-04T05:53:18.451Z,101158.63
2023-05-04T05:55:23.549Z,101162.34
2023-05-04T05:57:28.629Z,101158.75
2023-05-04T05:59:33.668Z,101164.41
2023-05-04T06:01:38.801Z,101162.58
2023-05-04T06:03:44.545Z,101158.56
2023-05-04T06:05:49.987Z,101161.38
2023-05-04T06:07:55.093Z,101159.79
2023-05-04T06:10:00.233Z,101159.16
2023-05-04T06:12:05.357Z,101158.23
2023-05-04T06:14:10.475Z,101160.58
2023-05-04T06:16:15.684Z,101165.47
2023-05-04T06:18:20.840Z,101164.93
2023-05-04T06:20:25.876Z,101166.16
2023-05-04T06:22:31.031Z,101167.84
2023-05-04T06:24:36.076Z,101169.36
2023-05-04T06:26:41.170Z,101171.23
2023-05-04T06:28:46.238Z,101159.72
2023-05-04T06:30:51.377Z,101166.14
2023-05-04T06:32:56.753Z,101169.97
2023-05-04T06:35:02.089Z,101170.73
2023-05-04T06:37:07.326Z,101167.23
2023-05-04T06:39:12.435Z,101168.61
2023-05-04T06:41:17.607Z,101170.57
2023-05-04T06:43:22.859Z,101172.52
2023-05-04T06:45:27.971Z,101167.47
2023-05-04T06:47:33.520Z,101167.55
2023-05-04T06:49:38.741Z,101167.11
2023-05-04T06:51:43.978Z,101170.59
2023-05-04T06:53:48.958Z,101168.07
2023-05-04T06:55:53.939Z,101166.44
2023-05-04T06:57:58.934Z,101162.39
2023-05-04T07:00:04.486Z,101167.81
2023-05-04T07:02:09.928Z,101168.2
2023-05-04T07:04:15.059Z,101166.95
2023-05-04T07:06:20.093Z,101165.53
2023-05-04T07:08:25.203Z,101167.63
2023-05-04T07:10:30.280Z,101168.2
2023-05-04T07:12:35.415Z,101166.23
2023-05-04T07:14:40.489Z,101166.63
2023-05-04T07:16:45.808Z,101166.87
2023-05-04T07:18:51.060Z,101167.22
2023-05-04T07:21:16.618Z,101165.42
2023-05-04T07:23:33.187Z,101165.98
2023-05-04T07:25:38.340Z,101162.76
2023-05-04T07:27:43.412Z,101162.61
2023-05-04T07:29:48.420Z,101161.66
2023-05-04T07:31:53.531Z,101159.38
2023-05-04T07:33:58.587Z,101157.06
2023-05-04T07:36:03.629Z,101154.44
2023-05-04T07:38:08.706Z,101154.16
2023-05-04T07:40:13.841Z,101155.05
2023-05-04T07:42:19.171Z,101149.83
2023-05-04T07:44:24.274Z,101149.66
2023-05-04T07:46:29.519Z,101147.92
2023-05-04T07:48:34.678Z,101148.05
2023-05-04T07:50:39.706Z,101150.62
2023-05-04T07:52:44.740Z,101147.98
2023-05-04T07:54:49.937Z,101147.6
2023-05-04T07:56:55.005Z,101144.27
2023-05-04T07:59:00.623Z,101142.63
2023-05-04T08:01:05.764Z,101146.13
2023-05-04T08:03:11.111Z,101145.22
2023-05-04T08:05:16.650Z,101144.61
2023-05-04T08:07:21.868Z,101140.14
2023-05-04T08:09:26.965Z,101139.86
2023-05-04T08:11:32.278Z,101139.22
2023-05-04T08:13:37.335Z,101137.62
2023-05-04T08:15:42.524Z,101143.8
2023-05-04T08:17:48.044Z,101144.63
2023-05-04T08:19:53.186Z,101143.27
2023-05-04T08:21:58.471Z,101138.38
2023-05-04T08:24:03.560Z,101137.56
2023-05-04T08:26:08.745Z,101132.03
2023-05-04T08:28:13.817Z,101135.23
2023-05-04T08:30:18.877Z,101137.42
2023-05-04T08:32:24.014Z,101132.27
2023-05-04T08:34:29.287Z,101141.19
2023-05-04T08:36:34.371Z,101138.08
2023-05-04T08:38:39.638Z,101139.14
2023-05-04T08:40:44.840Z,101136.11
2023-05-04T08:42:49.940Z,101133.92
2023-05-04T08:44:55.196Z,101132.08
2023-05-04T08:47:00.349Z,101121.35
2023-05-04T08:49:05.469Z,101126.3
2023-05-04T08:51:10.624Z,101126.11
2023-05-04T08:53:15.707Z,101119.78
2023-05-04T08:55:21.017Z,101123.06
2023-05-04T08:57:26.270Z,101122.66
2023-05-04T08:59:31.612Z,101119.31
2023-05-04T09:01:37.036Z,101116.65
2023-05-04T09:03:42.499Z,101117.41
2023-05-04T09:05:47.993Z,101110.74
2023-05-04T09:07:52.999Z,101114.73
2023-05-04T09:09:58.077Z,101120.79
2023-05-04T09:12:03.187Z,101118.09
2023-05-04T09:14:08.444Z,101112.7
2023-05-04T09:16:16.025Z,101112.73
2023-05-04T09:18:21.512Z,101109.55
2023-05-04T09:20:26.757Z,101113.86
2023-05-04T09:22:31.898Z,101115.8
2023-05-04T09:24:36.965Z,101115.3
2023-05-04T09:26:42.179Z,101117.14
2023-05-04T09:28:48.600Z,101114.16
2023-05-04T09:30:53.871Z,101111.3
2023-05-04T09:32:59.023Z,101107.3
2023-05-04T09:35:04.785Z,101101.01
2023-05-04T09:37:10.399Z,101103.33
2023-05-04T09:39:15.522Z,101097.86
2023-05-04T09:41:20.624Z,101105.04
2023-05-04T09:43:25.803Z,101098.89
2023-05-04T09:45:30.852Z,101093.08
2023-05-04T09:47:36.009Z,101094.78
2023-05-04T09:49:41.292Z,101086.48
2023-05-04T09:51:46.422Z,101093.75
2023-05-04T09:53:51.485Z,101084.22
2023-05-04T09:55:56.697Z,101085.25
2023-05-04T09:58:03.962Z,101088.08
2023-05-04T10:00:09.057Z,101089.89
2023-05-04T10:02:23.744Z,101086.17
2023-05-04T10:04:28.886Z,101083.19
2023-05-04T10:06:33.971Z,101080.31
2023-05-04T10:08:39.453Z,101084.11
2023-05-04T10:10:44.560Z,101077.75
2023-05-04T10:12:49.765Z,101081.27
2023-05-04T10:14:54.986Z,101083.19
2023-05-04T10:17:00.107Z,101076.14
2023-05-04T10:19:05.188Z,101073.44
2023-05-04T10:21:10.306Z,101071.11
2023-05-04T10:23:15.489Z,101066.45
2023-05-04T10:25:20.622Z,101068.72
2023-05-04T10:27:25.707Z,101066.86
2023-05-04T10:29:30.947Z,101063.27
2023-05-04T10:31:36.363Z,101054.38
2023-05-04T10:33:41.774Z,101052.59
2023-05-04T10:35:47.006Z,101048.84
2023-05-04T10:37:52.083Z,101049.33
2023-05-04T10:39:57.268Z,101042.94
2023-05-04T10:42:02.357Z,101044.1
2023-05-04T10:44:07.652Z,101039.88
2023-05-04T10:46:12.986Z,101038.95
2023-05-04T10:48:18.242Z,101045.16
2023-05-04T10:50:23.370Z,101027.95
2023-05-04T10:52:28.460Z,101023.3
2023-05-04T10:54:33.638Z,101025.66
2023-05-04T10:56:38.727Z,101021.81
2023-05-04T10:58:43.873Z,101021.03
2023-05-04T11:00:49.583Z,101014.68
2023-05-04T11:02:54.884Z,101016.42
2023-05-04T11:05:00.112Z,101013.35
2023-05-04T11:07:05.328Z,101007.41
2023-05-04T11:09:10.501Z,101010.75
2023-05-04T11:11:15.705Z,101007.98
2023-05-04T11:13:21.070Z,101008.23
2023-05-04T11:15:26.296Z,101004.11
2023-05-04T11:17:31.658Z,100997.72
2023-05-04T11:19:36.959Z,100992.33
2023-05-04T11:21:42.102Z,100988.06
2023-05-04T11:23:47.217Z,100984.23
2023-05-04T11:25:52.332Z,100979.25
2023-05-04T11:27:57.514Z,100981.67
2023-05-04T11:30:03.032Z,100980.48
2023-05-04T11:32:08.376Z,100981.09
2023-05-04T11:34:13.432Z,100974.53
2023-05-04T11:36:18.635Z,100965.78
2023-05-04T11:38:24.080Z,100960.19
2023-05-04T11:40:29.259Z,100957.16
2023-05-04T11:42:34.525Z,100951.17
2023-05-04T11:44:39.653Z,100953.5
2023-05-04T11:46:44.818Z,100954.04
2023-05-04T11:48:50.074Z,100957.28
2023-05-04T11:50:55.201Z,100961.95
2023-05-04T11:53:00.336Z,100958.59
2023-05-04T11:55:06.182Z,100961.23
2023-05-04T11:57:12.912Z,100958.09
2023-05-04T11:59:18.073Z,100950.38
2023-05-04T12:01:23.146Z,100951.84
2023-05-04T12:03:52.894Z,100950.98
2023-05-04T12:05:59.695Z,100953.09
2023-05-04T12:08:05.036Z,100956.84
2023-05-04T12:10:10.250Z,100955.5
2023-05-04T12:12:15.586Z,100951.01
2023-05-04T12:14:20.688Z,100949.08
2023-05-04T12:16:25.935Z,100946.81
2023-05-04T12:18:31.396Z,100941.15
2023-05-04T12:20:36.506Z,100937.56
2023-05-04T12:22:41.862Z,100941.28
2023-05-04T12:24:46.986Z,100943.44
2023-05-04T12:26:52.160Z,100938.25
2023-05-04T12:28:57.362Z,100940.22
2023-05-04T12:31:02.583Z,100935.17
2023-05-04T12:35:36.542Z,100925.17
2023-05-04T12:37:41.734Z,100921.92
2023-05-04T12:39:46.799Z,100915.49
2023-05-04T12:41:51.913Z,100914.16
2023-05-04T12:43:56.968Z,100913.59
2023-05-04T12:46:02.189Z,100912.7
2023-05-04T12:48:07.443Z,100911.4
2023-05-04T12:50:12.898Z,100901.75
2023-05-04T12:52:18.108Z,100914.72
2023-05-04T12:54:23.226Z,100911.36
2023-05-04T12:56:28.561Z,100914.28
2023-05-04T12:58:33.816Z,100908.13
2023-05-04T13:00:39.013Z,100915.73
2023-05-04T13:02:44.452Z,100899.64
2023-05-04T13:04:49.773Z,100910.59
2023-05-04T13:06:55.051Z,100911.57
2023-05-04T13:09:00.104Z,100905.56
2023-05-04T13:11:05.194Z,100903.95
2023-05-04T13:13:10.504Z,100901.48
2023-05-04T13:15:15.794Z,100900.7
2023-05-04T13:17:20.903Z,100899.6
2023-05-04T13:19:26.041Z,100891.25
2023-05-04T13:21:31.143Z,100886.05
2023-05-04T13:23:36.458Z,100883.34
2023-05-04T13:25:41.515Z,100884.7
2023-05-04T13:27:46.791Z,100878.98
2023-05-04T13:29:51.854Z,100879.78
2023-05-04T13:31:57.103Z,100873.82
2023-05-04T13:34:02.346Z,100867.87
2023-05-04T13:36:07.436Z,100865.69
2023-05-04T13:38:12.579Z,100860.81
2023-05-04T13:40:17.651Z,100856.89
2023-05-04T13:42:22.882Z,100851.88
2023-05-04T13:44:28.089Z,100855.23
2023-05-04T13:46:33.356Z,100850.45
2023-05-04T13:48:38.623Z,100846.83
2023-05-04T13:50:43.933Z,100845.39
2023-05-04T13:52:49.154Z,100849.89
2023-05-04T13:54:54.205Z,100844.71
2023-05-04T13:56:59.286Z,100842.47
2023-05-04T13:59:04.357Z,100837.23
2023-05-04T14:01:09.581Z,100834.56
2023-05-04T14:03:14.997Z,100838.07
2023-05-04T14:05:20.117Z,100832.55
2023-05-04T14:07:25.145Z,100832.22
2023-05-04T14:09:30.185Z,100831.2
2023-05-04T14:11:35.385Z,100829.78
2023-05-04T14:13:40.512Z,100825.25
2023-05-04T14:15:45.778Z,100825.41
2023-05-04T14:17:50.905Z,100826.95
2023-05-04T14:19:56.111Z,100812.92
2023-05-04T14:22:01.178Z,100811.77
2023-05-04T14:24:06.277Z,100807.45
2023-05-04T14:26:11.581Z,100805.75
2023-05-04T14:28:16.768Z,100807.9
2023-05-04T14:30:21.867Z,100801.79
2023-05-04T14:32:26.998Z,100797.48
2023-05-04T14:34:32.248Z,100797.92
2023-05-04T14:36:37.477Z,100795.25
2023-05-04T14:38:42.765Z,100787.32
2023-05-04T14:40:50.610Z,100790.41
2023-05-04T14:42:55.733Z,100788.53
2023-05-04T14:45:00.920Z,100788.48
2023-05-04T14:47:08.748Z,100791.81
2023-05-04T14:49:36.328Z,100793.31
2023-05-04T14:51:42.293Z,100791.06
2023-05-04T14:53:47.526Z,100787.38
2023-05-04T14:55:52.577Z,100787.25
2023-05-04T14:57:57.765Z,100795.89
2023-05-04T15:00:02.786Z,100787.46
2023-05-04T15:02:07.807Z,100781.83
2023-05-04T15:04:12.987Z,100782.36
2023-05-04T15:06:18.133Z,100781.23
2023-05-04T15:08:23.188Z,100776.73
2023-05-04T15:10:28.324Z,100774.28
2023-05-04T15:12:33.588Z,100775.2
2023-05-04T15:14:38.869Z,100771.72
2023-05-04T15:16:44.050Z,100774.02
2023-05-04T15:18:49.293Z,100773.8
2023-05-04T15:20:54.509Z,100776.98
2023-05-04T15:22:59.669Z,100773.7
2023-05-04T15:25:04.894Z,100772.62
2023-05-04T15:27:09.947Z,100768.32
2023-05-04T15:29:14.976Z,100767.61
2023-05-04T15:31:20.133Z,100770.06
2023-05-04T15:33:25.297Z,100764.84
2023-05-04T15:35:30.526Z,100764.34
2023-05-04T15:37:35.729Z,100758.75
2023-05-04T15:39:40.883Z,100750.56
2023-05-04T15:41:46.050Z,100752.69
2023-05-04T15:43:51.224Z,100748.59
2023-05-04T15:45:56.280Z,100746.58
2023-05-04T15:48:01.729Z,100747.84
2023-05-04T15:50:07.631Z,100747.84
2023-05-04T15:52:13.487Z,100741.05
2023-05-04T15:54:18.533Z,100738.46
2023-05-04T15:56:23.620Z,100745.08
2023-05-04T15:58:28.765Z,100746.75
2023-05-04T16:00:33.830Z,100746.72
2023-05-04T16:02:39.140Z,100744.7
2023-05-04T16:04:44.494Z,100736.31
2023-05-04T16:06:49.630Z,100741.47
2023-05-04T16:08:54.765Z,100737.84
2023-05-04T16:10:59.897Z,100734.95
2023-05-04T16:13:05.847Z,100728.81
2023-05-04T16:15:13.787Z,100731.23
2023-05-04T16:17:18.984Z,100728.36
2023-05-04T16:19:24.087Z,100725.7
2023-05-04T16:21:29.182Z,100723.92
2023-05-04T16:23:34.354Z,100714.89
2023-05-04T16:25:39.535Z,100723.34
2023-05-04T16:27:44.673Z,100715.3
2023-05-04T16:29:49.728Z,100713.19
2023-05-04T16:31:54.822Z,100712.41
2023-05-04T16:34:00.276Z,100711.97
2023-05-04T16:36:05.376Z,100712.34
2023-05-04T16:38:10.462Z,100711.89
2023-05-04T16:40:15.663Z,100710.89
2023-05-04T16:42:22.818Z,100705.31
2023-05-04T16:44:27.838Z,100710.92
2023-05-04T16:46:33.049Z,100711.38
2023-05-04T16:48:38.262Z,100707.59
2023-05-04T16:50:43.345Z,100706.14
2023-05-04T16:52:48.479Z,100701.17
2023-05-04T16:54:53.569Z,100704.56
2023-05-04T16:56:58.708Z,100702.66
2023-05-04T16:59:04.336Z,100705.45
2023-05-04T17:01:12.510Z,100698.81
2023-05-04T17:03:17.855Z,100705.38
2023-05-04T17:05:23.077Z,100702.27
2023-05-04T17:07:28.138Z,100704.1
2023-05-04T17:09:33.174Z,100701.38
2023-05-04T17:11:38.249Z,100702.72
2023-05-04T17:13:43.435Z,100701.73
2023-05-04T17:15:48.661Z,100704.28
2023-05-04T17:17:53.897Z,100703.81
2023-05-04T17:19:59.357Z,100704.61
2023-05-04T17:22:04.436Z,100706.77
2023-05-04T17:24:09.610Z,100699.45
2023-05-04T17:26:14.665Z,100705.02
2023-05-04T17:28:19.723Z,100704.05
2023-05-04T17:30:24.776Z,100703.97
2023-05-04T17:32:29.877Z,100699.36
2023-05-04T17:34:35.042Z,100702.53
2023-05-04T17:36:40.133Z,100698.05
2023-05-04T17:38:45.234Z,100699.09
2023-05-04T17:40:50.445Z,100700.14
2023-05-04T17:42:55.640Z,100698.34
2023-05-04T17:45:00.941Z,100703.41
2023-05-04T17:47:06.024Z,100703.36
2023-05-04T17:49:11.181Z,100705.88
2023-05-04T17:51:16.194Z,100708.25
2023-05-04T17:53:21.211Z,100709.19
2023-05-04T17:55:26.352Z,100708.97
2023-05-04T17:57:31.462Z,100701.12
2023-05-04T17:59:36.609Z,100708.89
2023-05-04T18:01:41.762Z,100712.38
2023-05-04T18:03:47.135Z,100714.58
2023-05-04T18:05:52.319Z,100712.85
2023-05-04T18:07:57.424Z,100719.08
2023-05-04T18:10:02.609Z,100721.23
2023-05-04T18:12:07.677Z,100721.06
2023-05-04T18:14:12.793Z,100717.16
2023-05-04T18:16:17.951Z,100721.77
2023-05-04T18:18:23.338Z,100727.05
2023-05-04T18:20:28.464Z,100727.88
2023-05-04T18:22:33.689Z,100726.61
2023-05-04T18:24:38.760Z,100732.28
2023-05-04T18:26:43.773Z,100736.23
2023-05-04T18:28:48.865Z,100737.57
2023-05-04T18:30:54.069Z,100738.53
2023-05-04T18:32:59.276Z,100741.44
2023-05-04T18:35:04.635Z,100739
2023-05-04T18:37:09.856Z,100736.36
2023-05-04T18:39:14.912Z,100737.25
2023-05-04T18:41:20.126Z,100738.88
2023-05-04T18:43:25.413Z,100738.03
2023-05-04T18:45:30.492Z,100739.81
2023-05-04T18:47:35.670Z,100742.91
2023-05-04T18:49:40.828Z,100741.47
2023-05-04T18:51:45.910Z,100740.38
2023-05-04T18:53:50.944Z,100743.03
2023-05-04T18:55:56.077Z,100745.11
2023-05-04T18:58:01.098Z,100746.98
2023-05-04T19:00:06.781Z,100746.73
2023-05-04T19:02:12.617Z,100747.02
2023-05-04T19:04:17.772Z,100742.91
2023-05-04T19:06:22.928Z,100747.09
2023-05-04T19:08:28.031Z,100747.14
2023-05-04T19:10:33.133Z,100745.1
2023-05-04T19:12:38.319Z,100743.13
2023-05-04T19:14:43.483Z,100745.34
2023-05-04T19:16:48.618Z,100747.25
2023-05-04T19:18:53.686Z,100745.3
2023-05-04T19:20:58.783Z,100747.28
2023-05-04T19:23:03.809Z,100744.85
2023-05-04T19:25:08.919Z,100745.45
2023-05-04T19:27:16.177Z,100745.76
2023-05-04T19:29:21.305Z,100747.14
2023-05-04T19:31:26.470Z,100745.78
2023-05-04T19:33:49.011Z,100740.61
2023-05-04T19:35:54.161Z,100742.57
2023-05-04T19:37:59.304Z,100746.56
2023-05-04T19:40:04.484Z,100747.52
2023-05-04T19:42:09.970Z,100745.02
2023-05-04T19:44:15.001Z,100743.1
2023-05-04T19:46:20.213Z,100739.94
2023-05-04T19:48:25.292Z,100739.67
2023-05-04T19:50:30.372Z,100734.13
2023-05-04T19:52:35.446Z,100736.75
2023-05-04T19:54:40.528Z,100738.02
2023-05-04T19:56:45.642Z,100738.63
2023-05-04T19:58:50.831Z,100737.67
2023-05-04T20:00:55.992Z,100736.36
2023-05-04T20:03:01.283Z,100736.88
2023-05-04T20:05:06.422Z,100724.66
2023-05-04T20:07:11.564Z,100726.32
2023-05-04T20:09:16.787Z,100730.97
2023-05-04T20:11:21.852Z,100731.49
2023-05-04T20:13:26.945Z,100730.45
2023-05-04T20:15:32.069Z,100728.56
2023-05-04T20:17:37.233Z,100723
2023-05-04T20:19:42.350Z,100728.19
2023-05-04T20:21:47.451Z,100725.45
2023-05-04T20:23:52.589Z,100723.98
2023-05-04T20:25:57.655Z,100723.94
2023-05-04T20:28:02.774Z,100724.19
2023-05-04T20:30:08.558Z,100724.14
2023-05-04T20:32:14.357Z,100722.45
2023-05-04T20:34:20.548Z,100719.21
2023-05-04T20:36:25.849Z,100719.75
2023-05-04T20:38:30.947Z,100719.2
2023-05-04T20:40:36.119Z,100715.55
2023-05-04T20:42:41.441Z,100713.54
2023-05-04T20:44:46.694Z,100714.95
2023-05-04T20:46:51.723Z,100719.08
2023-05-04T20:48:56.843Z,100717.42
2023-05-04T20:51:15.686Z,100717.21
2023-05-04T20:53:20.876Z,100715.31
2023-05-04T20:55:26.019Z,100714.37
2023-05-04T20:57:31.220Z,100712.42
2023-05-04T20:59:36.555Z,100715.51
2023-05-04T21:01:41.702Z,100716.52
2023-05-04T21:03:47.350Z,100709.79
2023-05-04T21:05:52.759Z,100708.88
2023-05-04T21:07:57.934Z,100707.35
2023-05-04T21:10:03.006Z,100709.42
2023-05-04T21:12:08.022Z,100709.16
2023-05-04T21:14:13.335Z,100707.84
2023-05-04T21:16:18.502Z,100710.51
2023-05-04T21:18:23.645Z,100710.75
2023-05-04T21:20:28.688Z,100709.11
2023-05-04T21:22:33.809Z,100708.53
2023-05-04T21:24:38.857Z,100707.51
2023-05-04T21:26:43.926Z,100703.22
2023-05-04T21:28:49.012Z,100703.23
2023-05-04T21:30:54.154Z,100710.91
2023-05-04T21:32:59.435Z,100710.3
2023-05-04T21:35:05.110Z,100709.3
2023-05-04T21:37:10.281Z,100707.32
2023-05-04T21:39:15.535Z,100707.22
2023-05-04T21:41:20.749Z,100705
2023-05-04T21:43:25.849Z,100702.66
2023-05-04T21:45:30.947Z,100700.7
2023-05-04T21:47:36.369Z,100688.42
2023-05-04T21:49:41.585Z,100687.23
2023-05-04T21:51:46.664Z,100685.73
2023-05-04T21:53:51.674Z,100686.84
2023-05-04T21:55:56.755Z,100684.13
2023-05-04T21:58:01.824Z,100679.56
2023-05-04T22:00:07.164Z,100677.65
2023-05-04T22:02:12.878Z,100677.7
2023-05-04T22:04:18.093Z,100676.11
2023-05-04T22:06:23.410Z,100673.17
2023-05-04T22:08:28.544Z,100673.93
2023-05-04T22:10:33.712Z,100675.47
2023-05-04T22:12:39.126Z,100675.58
2023-05-04T22:14:44.347Z,100676.03
2023-05-04T22:16:49.698Z,100679.54
2023-05-04T22:18:55.055Z,100682.07
2023-05-04T22:21:00.240Z,100685.05
2023-05-04T22:23:05.486Z,100687.98
2023-05-04T22:25:10.645Z,100687.82
2023-05-04T22:27:15.839Z,100680.08
2023-05-04T22:29:20.864Z,100680.29
2023-05-04T22:31:26.046Z,100672.08
2023-05-04T22:33:31.197Z,100670.4
2023-05-04T22:35:36.482Z,100670.13
2023-05-04T22:37:41.582Z,100669.31
2023-05-04T22:39:46.618Z,100670.81
2023-05-04T22:41:51.682Z,100666.14
2023-05-04T22:43:56.863Z,100663.7
2023-05-04T22:46:02.120Z,100661.98
2023-05-04T22:48:07.534Z,100660.11
2023-05-04T22:50:12.598Z,100660.8
2023-05-04T22:52:17.721Z,100660.23
2023-05-04T22:54:22.993Z,100655.6
2023-05-04T22:56:28.180Z,100664.01
2023-05-04T22:58:33.178Z,100664.02
2023-05-04T23:00:38.331Z,100665.42
2023-05-04T23:02:43.500Z,100666.08
2023-05-04T23:04:48.638Z,100661.52
2023-05-04T23:06:53.760Z,100663
2023-05-04T23:08:58.887Z,100664.44
2023-05-04T23:11:03.993Z,100668.47
2023-05-04T23:13:09.186Z,100669.56
2023-05-04T23:15:14.401Z,100670.82
2023-05-04T23:17:19.445Z,100666.72
2023-05-04T23:19:24.631Z,100660.1
2023-05-04T23:21:29.655Z,100656.59
2023-05-04T23:23:34.709Z,100656.18
2023-05-04T23:25:39.847Z,100656.83
2023-05-04T23:27:44.962Z,100656.7
2023-05-04T23:29:49.979Z,100659.97
2023-05-04T23:31:55.156Z,100656.19
2023-05-04T23:34:00.277Z,100655.53
2023-05-04T23:36:05.335Z,100651.5
2023-05-04T23:38:10.454Z,100647.48
2023-05-04T23:40:15.564Z,100645.95
2023-05-04T23:42:20.684Z,100642.4
2023-05-04T23:44:25.923Z,100643.94
2023-05-04T23:46:30.942Z,100644.07
2023-05-04T23:48:36.008Z,100645.03
2023-05-04T23:50:41.052Z,100645.87
2023-05-04T23:52:46.159Z,100641.27
2023-05-04T23:54:51.290Z,100640.92
2023-05-04T23:56:56.607Z,100638.98
2023-05-04T23:59:01.760Z,100646.49
